sensor_id;sensor_type;location;lat;lon;timestamp;pressure;altitude;pressure_sealevel;temperature;humidity
62791;BME280;48830;53.426;10.300;2022-08-03T00:01:26;101514.03;;;21.57;77.43
62791;BME280;48830;53.426;10.300;2022-08-03T00:03:51;101520.13;;;21.58;76.87
62791;BME280;48830;53.426;10.300;2022-08-03T00:06:17;101521.03;;;21.57;77.52
62791;BME280;48830;53.426;10.300;2022-08-03T00:08:42;101518.44;;;21.55;77.53
62791;BME280;48830;53.426;10.300;2022-08-03T00:11:08;101514.16;;;21.53;77.52
62791;BME280;48830;53.426;10.300;2022-08-03T00:13:33;101515.09;;;21.48;78.49
62791;BME280;48830;53.426;10.300;2022-08-03T00:15:59;101514.31;;;21.43;78.83
62791;BME280;48830;53.426;10.300;2022-08-03T00:18:25;101520.44;;;21.41;78.26
62791;BME280;48830;53.426;10.300;2022-08-03T00:20:50;101518.72;;;21.40;78.62
62791;BME280;48830;53.426;10.300;2022-08-03T00:23:16;101514.47;;;21.34;78.66
62791;BME280;48830;53.426;10.300;2022-08-03T00:25:41;101518.84;;;21.34;78.95
62791;BME280;48830;53.426;10.300;2022-08-03T00:28:07;101509.31;;;21.31;79.04
62791;BME280;48830;53.426;10.300;2022-08-03T00:30:33;101507.56;;;21.29;79.24
62791;BME280;48830;53.426;10.300;2022-08-03T00:32:59;101508.47;;;21.26;79.44
62791;BME280;48830;53.426;10.300;2022-08-03T00:35:24;101504.13;;;21.25;78.91
62791;BME280;48830;53.426;10.300;2022-08-03T00:37:50;101501.59;;;21.20;79.33
62791;BME280;48830;53.426;10.300;2022-08-03T00:40:17;101502.47;;;21.19;78.98
62791;BME280;48830;53.426;10.300;2022-08-03T00:45:12;101497.34;;;21.13;79.76
62791;BME280;48830;53.426;10.300;2022-08-03T00:47:37;101504.41;;;21.10;79.95
62791;BME280;48830;53.426;10.300;2022-08-03T00:50:03;101498.41;;;21.03;79.98
62791;BME280;48830;53.426;10.300;2022-08-03T00:52:28;101507.13;;;21.02;79.90
62791;BME280;48830;53.426;10.300;2022-08-03T00:54:54;101498.50;;;20.97;79.91
62791;BME280;48830;53.426;10.300;2022-08-03T00:57:19;101504.66;;;20.93;79.85
62791;BME280;48830;53.426;10.300;2022-08-03T00:59:45;101502.16;;;20.87;79.91
62791;BME280;48830;53.426;10.300;2022-08-03T01:02:10;101498.75;;;20.82;80.03
62791;BME280;48830;53.426;10.300;2022-08-03T01:04:36;101493.63;;;20.77;80.06
62791;BME280;48830;53.426;10.300;2022-08-03T01:15:42;101486.88;;;20.62;79.96
62791;BME280;48830;53.426;10.300;2022-08-03T01:18:15;101491.25;;;20.59;80.40
62791;BME280;48830;53.426;10.300;2022-08-03T01:20:44;101494.00;;;20.51;80.37
62791;BME280;48830;53.426;10.300;2022-08-03T01:26:36;101492.28;;;20.49;79.90
62791;BME280;48830;53.426;10.300;2022-08-03T01:31:39;101492.38;;;20.41;80.38
62791;BME280;48830;53.426;10.300;2022-08-03T01:34:08;101489.81;;;20.36;80.52
62791;BME280;48830;53.426;10.300;2022-08-03T01:36:38;101484.66;;;20.32;80.55
62791;BME280;48830;53.426;10.300;2022-08-03T01:39:05;101496.03;;;20.26;81.31
62791;BME280;48830;53.426;10.300;2022-08-03T01:42:00;101501.38;;;20.18;81.88
62791;BME280;48830;53.426;10.300;2022-08-03T01:44:33;101491.00;;;20.12;81.84
62791;BME280;48830;53.426;10.300;2022-08-03T01:47:02;101493.69;;;20.08;81.58
62791;BME280;48830;53.426;10.300;2022-08-03T01:49:29;101491.13;;;20.03;82.20
62791;BME280;48830;53.426;10.300;2022-08-03T01:51:58;101485.13;;;19.95;82.72
62791;BME280;48830;53.426;10.300;2022-08-03T01:54:25;101492.97;;;19.95;82.67
62791;BME280;48830;53.426;10.300;2022-08-03T01:56:53;101486.09;;;19.88;82.83
62791;BME280;48830;53.426;10.300;2022-08-03T01:59:21;101485.31;;;19.81;83.36
62791;BME280;48830;53.426;10.300;2022-08-03T02:01:50;101485.31;;;19.81;83.33
62791;BME280;48830;53.426;10.300;2022-08-03T02:04:19;101488.00;;;19.75;83.12
62791;BME280;48830;53.426;10.300;2022-08-03T02:06:47;101481.88;;;19.75;83.24
62791;BME280;48830;53.426;10.300;2022-08-03T02:09:14;101489.72;;;19.75;83.05
62791;BME280;48830;53.426;10.300;2022-08-03T02:11:41;101487.19;;;19.69;83.47
62791;BME280;48830;53.426;10.300;2022-08-03T02:14:09;101487.28;;;19.61;83.72
62791;BME280;48830;53.426;10.300;2022-08-03T02:16:36;101483.81;;;19.60;83.81
62791;BME280;48830;53.426;10.300;2022-08-03T02:19:04;101480.31;;;19.57;84.02
62791;BME280;48830;53.426;10.300;2022-08-03T02:21:32;101474.31;;;19.50;84.00
62791;BME280;48830;53.426;10.300;2022-08-03T02:24:00;101475.16;;;19.52;83.85
62791;BME280;48830;53.426;10.300;2022-08-03T02:26:28;101474.34;;;19.49;84.37
62791;BME280;48830;53.426;10.300;2022-08-03T02:28:55;101473.47;;;19.47;84.06
62791;BME280;48830;53.426;10.300;2022-08-03T02:31:27;101470.91;;;19.42;84.09
62791;BME280;48830;53.426;10.300;2022-08-03T02:34:00;101478.81;;;19.36;84.64
62791;BME280;48830;53.426;10.300;2022-08-03T02:36:29;101476.25;;;19.31;84.42
62791;BME280;48830;53.426;10.300;2022-08-03T02:38:58;101467.59;;;19.28;84.45
62791;BME280;48830;53.426;10.300;2022-08-03T02:41:30;101471.09;;;19.24;85.19
62791;BME280;48830;53.426;10.300;2022-08-03T02:43:58;101472.84;;;19.23;84.81
62791;BME280;48830;53.426;10.300;2022-08-03T02:46:33;101461.63;;;19.17;85.22
62791;BME280;48830;53.426;10.300;2022-08-03T02:49:01;101463.34;;;19.18;85.35
62791;BME280;48830;53.426;10.300;2022-08-03T02:51:30;101463.38;;;19.14;85.37
62791;BME280;48830;53.426;10.300;2022-08-03T02:53:59;101466.00;;;19.13;85.28
62791;BME280;48830;53.426;10.300;2022-08-03T02:56:27;101466.94;;;19.06;86.25
62791;BME280;48830;53.426;10.300;2022-08-03T02:58:53;101464.38;;;19.01;86.34
62791;BME280;48830;53.426;10.300;2022-08-03T03:01:21;101460.00;;;19.03;85.86
62791;BME280;48830;53.426;10.300;2022-08-03T03:03:48;101463.47;;;19.04;86.05
62791;BME280;48830;53.426;10.300;2022-08-03T03:06:16;101469.53;;;19.04;85.94
62791;BME280;48830;53.426;10.300;2022-08-03T03:08:44;101460.91;;;18.99;86.02
62791;BME280;48830;53.426;10.300;2022-08-03T03:11:12;101467.03;;;18.95;86.52
62791;BME280;48830;53.426;10.300;2022-08-03T03:13:38;101472.28;;;18.91;86.75
62791;BME280;48830;53.426;10.300;2022-08-03T03:16:07;101461.84;;;18.91;86.20
62791;BME280;48830;53.426;10.300;2022-08-03T03:18:33;101457.56;;;18.85;86.23
62791;BME280;48830;53.426;10.300;2022-08-03T03:21:03;101461.91;;;18.84;86.20
62791;BME280;48830;53.426;10.300;2022-08-03T03:23:29;101462.78;;;18.82;86.64
62791;BME280;48830;53.426;10.300;2022-08-03T03:25:56;101466.28;;;18.81;86.76
62791;BME280;48830;53.426;10.300;2022-08-03T03:28:23;101463.69;;;18.79;86.69
62791;BME280;48830;53.426;10.300;2022-08-03T03:30:49;101468.91;;;18.76;87.00
62791;BME280;48830;53.426;10.300;2022-08-03T03:33:15;101469.75;;;18.77;86.90
62791;BME280;48830;53.426;10.300;2022-08-03T03:35:41;101478.47;;;18.76;86.87
62791;BME280;48830;53.426;10.300;2022-08-03T03:38:08;101473.28;;;18.74;86.80
62791;BME280;48830;53.426;10.300;2022-08-03T03:40:34;101467.22;;;18.74;86.60
62791;BME280;48830;53.426;10.300;2022-08-03T03:43:01;101476.75;;;18.75;86.79
62791;BME280;48830;53.426;10.300;2022-08-03T03:45:26;101463.75;;;18.73;87.08
62791;BME280;48830;53.426;10.300;2022-08-03T03:47:53;101471.53;;;18.75;86.75
62791;BME280;48830;53.426;10.300;2022-08-03T03:50:19;101475.00;;;18.75;86.76
62791;BME280;48830;53.426;10.300;2022-08-03T03:52:46;101467.19;;;18.75;86.85
62791;BME280;48830;53.426;10.300;2022-08-03T03:55:15;101469.75;;;18.77;86.57
62791;BME280;48830;53.426;10.300;2022-08-03T03:57:40;101469.75;;;18.80;86.34
62791;BME280;48830;53.426;10.300;2022-08-03T04:00:06;101463.66;;;18.81;86.44
62791;BME280;48830;53.426;10.300;2022-08-03T04:02:32;101466.28;;;18.81;86.52
62791;BME280;48830;53.426;10.300;2022-08-03T04:04:57;101466.25;;;18.84;86.75
62791;BME280;48830;53.426;10.300;2022-08-03T04:07:55;101467.09;;;18.86;87.04
62791;BME280;48830;53.426;10.300;2022-08-03T04:10:42;101467.03;;;18.94;86.54
62791;BME280;48830;53.426;10.300;2022-08-03T04:13:23;101462.66;;;18.97;86.65
62791;BME280;48830;53.426;10.300;2022-08-03T04:15:50;101460.03;;;19.00;86.59
62791;BME280;48830;53.426;10.300;2022-08-03T04:18:16;101463.47;;;19.05;86.25
62791;BME280;48830;53.426;10.300;2022-08-03T04:20:45;101465.16;;;19.11;86.07
62791;BME280;48830;53.426;10.300;2022-08-03T04:23:15;101463.38;;;19.16;86.47
62791;BME280;48830;53.426;10.300;2022-08-03T04:25:45;101468.53;;;19.22;86.01
62791;BME280;48830;53.426;10.300;2022-08-03T04:28:11;101464.13;;;19.26;85.95
62791;BME280;48830;53.426;10.300;2022-08-03T04:30:38;101468.47;;;19.28;85.00
62791;BME280;48830;53.426;10.300;2022-08-03T04:33:05;101466.69;;;19.33;84.28
62791;BME280;48830;53.426;10.300;2022-08-03T04:35:33;101469.25;;;19.38;84.17
62791;BME280;48830;53.426;10.300;2022-08-03T04:38:02;101471.81;;;19.41;84.05
62791;BME280;48830;53.426;10.300;2022-08-03T04:40:33;101475.28;;;19.41;84.58
62791;BME280;48830;53.426;10.300;2022-08-03T04:42:59;101475.25;;;19.45;84.26
62791;BME280;48830;53.426;10.300;2022-08-03T04:45:27;101476.06;;;19.50;83.35
62791;BME280;48830;53.426;10.300;2022-08-03T04:47:54;101475.16;;;19.54;83.52
62791;BME280;48830;53.426;10.300;2022-08-03T04:50:20;101474.25;;;19.56;83.93
62791;BME280;48830;53.426;10.300;2022-08-03T04:53:02;101476.84;;;19.58;83.65
62791;BME280;48830;53.426;10.300;2022-08-03T04:55:30;101473.34;;;19.62;83.58
62791;BME280;48830;53.426;10.300;2022-08-03T04:57:57;101476.78;;;19.64;83.19
62791;BME280;48830;53.426;10.300;2022-08-03T05:00:23;101482.91;;;19.64;83.54
62791;BME280;48830;53.426;10.300;2022-08-03T05:02:49;101482.91;;;19.64;83.21
62791;BME280;48830;53.426;10.300;2022-08-03T05:05:16;101475.06;;;19.66;83.55
62791;BME280;48830;53.426;10.300;2022-08-03T05:07:41;101492.41;;;19.67;84.22
62791;BME280;48830;53.426;10.300;2022-08-03T05:10:08;101488.06;;;19.71;84.80
62791;BME280;48830;53.426;10.300;2022-08-03T05:12:34;101486.28;;;19.73;84.53
62791;BME280;48830;53.426;10.300;2022-08-03T05:15:00;101480.84;;;19.92;83.32
62791;BME280;48830;53.426;10.300;2022-08-03T05:17:27;101485.00;;;20.06;82.56
62791;BME280;48830;53.426;10.300;2022-08-03T05:19:53;101480.53;;;20.15;82.51
62791;BME280;48830;53.426;10.300;2022-08-03T05:22:20;101483.88;;;20.25;81.41
62791;BME280;48830;53.426;10.300;2022-08-03T05:24:45;101485.47;;;20.34;80.94
62791;BME280;48830;53.426;10.300;2022-08-03T05:27:10;101485.34;;;20.44;80.46
62791;BME280;48830;53.426;10.300;2022-08-03T05:29:42;101478.25;;;20.57;80.21
62791;BME280;48830;53.426;10.300;2022-08-03T05:32:07;101487.69;;;20.64;79.46
62791;BME280;48830;53.426;10.300;2022-08-03T05:34:33;101481.34;;;20.81;79.08
62791;BME280;48830;53.426;10.300;2022-08-03T05:36:58;101489.88;;;20.92;78.94
62791;BME280;48830;53.426;10.300;2022-08-03T05:39:24;101484.38;;;21.07;78.44
62791;BME280;48830;53.426;10.300;2022-08-03T05:41:49;101479.00;;;21.16;78.16
62791;BME280;48830;53.426;10.300;2022-08-03T05:44:15;101484.09;;;21.26;77.35
62791;BME280;48830;53.426;10.300;2022-08-03T05:46:40;101491.69;;;21.39;76.75
62791;BME280;48830;53.426;10.300;2022-08-03T05:49:05;101488.06;;;21.46;76.54
62791;BME280;48830;53.426;10.300;2022-08-03T05:51:31;101488.72;;;21.59;75.76
62791;BME280;48830;53.426;10.300;2022-08-03T05:53:56;101482.34;;;21.72;75.48
62791;BME280;48830;53.426;10.300;2022-08-03T05:56:23;101488.34;;;21.78;75.44
62791;BME280;48830;53.426;10.300;2022-08-03T05:58:51;101489.75;;;21.94;74.83
62791;BME280;48830;53.426;10.300;2022-08-03T06:01:18;101486.97;;;22.03;74.82
62791;BME280;48830;53.426;10.300;2022-08-03T06:03:47;101492.00;;;22.14;74.76
62791;BME280;48830;53.426;10.300;2022-08-03T06:06:12;101488.16;;;22.30;73.69
62791;BME280;48830;53.426;10.300;2022-08-03T06:08:39;101484.53;;;22.36;73.27
62791;BME280;48830;53.426;10.300;2022-08-03T06:11:05;101483.16;;;22.58;73.66
62791;BME280;48830;53.426;10.300;2022-08-03T06:13:31;101481.13;;;22.69;73.50
62791;BME280;48830;53.426;10.300;2022-08-03T06:15:56;101481.38;;;22.60;73.43
62791;BME280;48830;53.426;10.300;2022-08-03T06:18:22;101484.41;;;22.79;72.46
62791;BME280;48830;53.426;10.300;2022-08-03T06:20:49;101484.84;;;22.98;72.63
62791;BME280;48830;53.426;10.300;2022-08-03T06:23:15;101479.19;;;23.15;72.02
62791;BME280;48830;53.426;10.300;2022-08-03T06:25:40;101482.28;;;23.29;71.62
62791;BME280;48830;53.426;10.300;2022-08-03T06:28:07;101482.56;;;23.51;70.64
62791;BME280;48830;53.426;10.300;2022-08-03T06:30:32;101482.97;;;23.70;71.17
62791;BME280;48830;53.426;10.300;2022-08-03T06:32:58;101486.50;;;23.67;70.32
62791;BME280;48830;53.426;10.300;2022-08-03T06:35:23;101483.13;;;23.64;69.91
62791;BME280;48830;53.426;10.300;2022-08-03T06:37:50;101489.63;;;23.81;69.46
62791;BME280;48830;53.426;10.300;2022-08-03T06:40:17;101495.16;;;24.02;69.93
62791;BME280;48830;53.426;10.300;2022-08-03T06:42:44;101491.19;;;24.18;69.51
62791;BME280;48830;53.426;10.300;2022-08-03T06:45:10;101484.31;;;24.44;69.41
62791;BME280;48830;53.426;10.300;2022-08-03T06:47:37;101487.34;;;24.58;67.84
62791;BME280;48830;53.426;10.300;2022-08-03T06:50:06;101489.16;;;24.56;67.74
62791;BME280;48830;53.426;10.300;2022-08-03T06:52:34;101492.25;;;24.69;67.46
62791;BME280;48830;53.426;10.300;2022-08-03T06:54:59;101496.84;;;24.62;66.03
62791;BME280;48830;53.426;10.300;2022-08-03T06:57:25;101492.81;;;24.78;66.10
62791;BME280;48830;53.426;10.300;2022-08-03T06:59:50;101494.25;;;25.15;64.63
62791;BME280;48830;53.426;10.300;2022-08-03T07:02:16;101490.88;;;25.36;64.71
62791;BME280;48830;53.426;10.300;2022-08-03T07:04:48;101497.25;;;25.54;64.62
62791;BME280;48830;53.426;10.300;2022-08-03T07:07:13;101492.69;;;25.84;64.25
62791;BME280;48830;53.426;10.300;2022-08-03T07:09:39;101494.06;;;25.95;62.68
62791;BME280;48830;53.426;10.300;2022-08-03T07:12:04;101490.38;;;25.99;63.85
62791;BME280;48830;53.426;10.300;2022-08-03T07:14:31;101490.38;;;26.22;62.88
62791;BME280;48830;53.426;10.300;2022-08-03T07:16:56;101490.56;;;26.39;62.33
62791;BME280;48830;53.426;10.300;2022-08-03T07:19:22;101492.78;;;26.28;61.31
62791;BME280;48830;53.426;10.300;2022-08-03T07:21:47;101491.91;;;26.28;61.08
62791;BME280;48830;53.426;10.300;2022-08-03T07:24:12;101496.66;;;26.41;61.13
62791;BME280;48830;53.426;10.300;2022-08-03T07:26:38;101492.38;;;26.61;60.49
62791;BME280;48830;53.426;10.300;2022-08-03T07:29:04;101497.56;;;26.64;60.13
62791;BME280;48830;53.426;10.300;2022-08-03T07:31:29;101494.22;;;26.81;59.30
62791;BME280;48830;53.426;10.300;2022-08-03T07:33:55;101494.16;;;26.82;58.49
62791;BME280;48830;53.426;10.300;2022-08-03T07:36:20;101495.03;;;27.03;57.74
62791;BME280;48830;53.426;10.300;2022-08-03T07:38:46;101497.28;;;27.34;57.16
62791;BME280;48830;53.426;10.300;2022-08-03T07:41:11;101495.41;;;27.36;57.49
62791;BME280;48830;53.426;10.300;2022-08-03T07:43:37;101496.00;;;27.43;56.83
62791;BME280;48830;53.426;10.300;2022-08-03T07:46:02;101497.31;;;27.53;57.14
62791;BME280;48830;53.426;10.300;2022-08-03T07:48:28;101495.53;;;27.74;56.79
62791;BME280;48830;53.426;10.300;2022-08-03T07:50:53;101500.88;;;27.91;57.18
62791;BME280;48830;53.426;10.300;2022-08-03T07:53:19;101499.56;;;28.20;55.53
62791;BME280;48830;53.426;10.300;2022-08-03T07:55:44;101501.94;;;28.25;54.18
62791;BME280;48830;53.426;10.300;2022-08-03T07:58:10;101505.06;;;28.16;53.98
62791;BME280;48830;53.426;10.300;2022-08-03T08:00:40;101505.88;;;27.97;53.60
62791;BME280;48830;53.426;10.300;2022-08-03T08:03:05;101502.28;;;28.38;54.75
62791;BME280;48830;53.426;10.300;2022-08-03T08:05:31;101497.97;;;28.35;54.28
62791;BME280;48830;53.426;10.300;2022-08-03T08:07:56;101505.13;;;28.33;54.49
62791;BME280;48830;53.426;10.300;2022-08-03T08:10:22;101495.09;;;28.59;53.22
62791;BME280;48830;53.426;10.300;2022-08-03T08:12:48;101492.50;;;28.57;53.23
62791;BME280;48830;53.426;10.300;2022-08-03T08:15:14;101487.22;;;29.11;52.50
62791;BME280;48830;53.426;10.300;2022-08-03T08:17:45;101484.03;;;29.04;51.75
62791;BME280;48830;53.426;10.300;2022-08-03T08:20:14;101487.91;;;28.80;52.95
62791;BME280;48830;53.426;10.300;2022-08-03T08:22:40;101488.59;;;28.83;53.39
62791;BME280;48830;53.426;10.300;2022-08-03T08:25:06;101492.56;;;28.92;53.18
62791;BME280;48830;53.426;10.300;2022-08-03T08:27:31;101489.53;;;28.82;52.97
62791;BME280;48830;53.426;10.300;2022-08-03T08:29:56;101492.56;;;28.92;53.38
62791;BME280;48830;53.426;10.300;2022-08-03T08:32:22;101490.59;;;28.97;52.53
62791;BME280;48830;53.426;10.300;2022-08-03T08:34:47;101492.56;;;28.74;51.79
62791;BME280;48830;53.426;10.300;2022-08-03T08:37:13;101487.94;;;28.78;52.33
62791;BME280;48830;53.426;10.300;2022-08-03T08:39:39;101484.13;;;29.02;51.09
62791;BME280;48830;53.426;10.300;2022-08-03T08:42:04;101486.66;;;29.39;51.58
62791;BME280;48830;53.426;10.300;2022-08-03T08:44:30;101480.66;;;29.35;50.14
62791;BME280;48830;53.426;10.300;2022-08-03T08:46:56;101485.81;;;29.38;50.85
62791;BME280;48830;53.426;10.300;2022-08-03T08:49:25;101485.88;;;29.37;51.22
62791;BME280;48830;53.426;10.300;2022-08-03T08:51:53;101490.59;;;29.47;49.80
62791;BME280;48830;53.426;10.300;2022-08-03T08:54:20;101485.41;;;29.79;50.30
62791;BME280;48830;53.426;10.300;2022-08-03T08:56:49;101481.31;;;29.89;49.61
62791;BME280;48830;53.426;10.300;2022-08-03T08:59:16;101485.31;;;30.14;50.94
62791;BME280;48830;53.426;10.300;2022-08-03T09:01:42;101484.91;;;30.83;48.88
62791;BME280;48830;53.426;10.300;2022-08-03T09:04:08;101484.91;;;30.83;48.46
62791;BME280;48830;53.426;10.300;2022-08-03T09:06:34;101479.28;;;30.73;48.25
62791;BME280;48830;53.426;10.300;2022-08-03T09:08:59;101486.63;;;30.84;48.72
62791;BME280;48830;53.426;10.300;2022-08-03T09:11:25;101492.22;;;30.79;48.10
62791;BME280;48830;53.426;10.300;2022-08-03T09:13:50;101489.56;;;30.64;48.61
62791;BME280;48830;53.426;10.300;2022-08-03T09:16:19;101485.31;;;30.91;48.73
62791;BME280;48830;53.426;10.300;2022-08-03T09:18:50;101473.72;;;31.22;48.00
62791;BME280;48830;53.426;10.300;2022-08-03T09:21:26;101473.69;;;31.08;48.62
62791;BME280;48830;53.426;10.300;2022-08-03T09:23:55;101472.84;;;31.07;49.56
62791;BME280;48830;53.426;10.300;2022-08-03T09:26:28;101484.88;;;31.72;47.13
62791;BME280;48830;53.426;10.300;2022-08-03T09:29:05;101489.72;;;30.76;48.83
62791;BME280;48830;53.426;10.300;2022-08-03T09:31:38;101486.47;;;31.01;49.00
62791;BME280;48830;53.426;10.300;2022-08-03T09:34:06;101479.56;;;31.43;48.23
62791;BME280;48830;53.426;10.300;2022-08-03T09:39:12;101474.88;;;32.04;47.05
62791;BME280;48830;53.426;10.300;2022-08-03T09:41:47;101478.72;;;32.41;46.66
62791;BME280;48830;53.426;10.300;2022-08-03T09:44:13;101473.22;;;32.30;45.87
62791;BME280;48830;53.426;10.300;2022-08-03T09:46:50;101475.94;;;31.73;47.46
62791;BME280;48830;53.426;10.300;2022-08-03T09:49:16;101473.97;;;32.18;47.69
62791;BME280;48830;53.426;10.300;2022-08-03T09:51:42;101481.78;;;32.21;46.71
62791;BME280;48830;53.426;10.300;2022-08-03T09:54:08;101480.47;;;32.13;47.45
62791;BME280;48830;53.426;10.300;2022-08-03T09:56:44;101475.31;;;32.79;45.88
62791;BME280;48830;53.426;10.300;2022-08-03T09:59:12;101473.53;;;32.92;45.41
62791;BME280;48830;53.426;10.300;2022-08-03T10:01:38;101486.66;;;32.14;46.24
62791;BME280;48830;53.426;10.300;2022-08-03T10:04:13;101467.59;;;32.34;46.90
62791;BME280;48830;53.426;10.300;2022-08-03T10:06:39;101464.94;;;33.01;45.07
62791;BME280;48830;53.426;10.300;2022-08-03T10:09:13;101470.41;;;33.51;45.35
62791;BME280;48830;53.426;10.300;2022-08-03T10:11:40;101465.69;;;33.80;43.09
62791;BME280;48830;53.426;10.300;2022-08-03T10:14:10;101461.09;;;34.18;43.39
62791;BME280;48830;53.426;10.300;2022-08-03T10:16:43;101461.56;;;34.12;43.63
62791;BME280;48830;53.426;10.300;2022-08-03T10:19:09;101463.25;;;34.13;43.53
62791;BME280;48830;53.426;10.300;2022-08-03T10:21:37;101461.34;;;32.88;45.12
62791;BME280;48830;53.426;10.300;2022-08-03T10:24:08;101470.06;;;33.55;44.85
62791;BME280;48830;53.426;10.300;2022-08-03T10:26:38;101467.00;;;32.83;44.70
62791;BME280;48830;53.426;10.300;2022-08-03T10:29:09;101462.50;;;33.11;45.25
62791;BME280;48830;53.426;10.300;2022-08-03T10:31:43;101454.81;;;33.06;46.29
62791;BME280;48830;53.426;10.300;2022-08-03T10:34:18;101457.13;;;32.98;44.60
62791;BME280;48830;53.426;10.300;2022-08-03T10:36:48;101459.38;;;33.81;44.32
62791;BME280;48830;53.426;10.300;2022-08-03T10:39:18;101450.78;;;33.64;44.53
62791;BME280;48830;53.426;10.300;2022-08-03T10:41:45;101450.28;;;32.81;45.01
62791;BME280;48830;53.426;10.300;2022-08-03T10:44:17;101449.91;;;33.64;44.16
62791;BME280;48830;53.426;10.300;2022-08-03T10:46:43;101448.75;;;33.17;44.03
62791;BME280;48830;53.426;10.300;2022-08-03T10:49:18;101454.19;;;33.28;44.59
62791;BME280;48830;53.426;10.300;2022-08-03T10:51:45;101454.41;;;33.63;44.60
62791;BME280;48830;53.426;10.300;2022-08-03T10:56:59;101441.16;;;33.36;43.94
62791;BME280;48830;53.426;10.300;2022-08-03T11:02:15;101444.31;;;32.78;45.47
62791;BME280;48830;53.426;10.300;2022-08-03T11:04:41;101440.88;;;32.76;45.83
62791;BME280;48830;53.426;10.300;2022-08-03T11:09:43;101437.81;;;33.97;43.54
62791;BME280;48830;53.426;10.300;2022-08-03T11:14:48;101439.06;;;33.91;44.67
62791;BME280;48830;53.426;10.300;2022-08-03T11:17:14;101425.09;;;34.48;44.26
62791;BME280;48830;53.426;10.300;2022-08-03T11:22:09;101440.34;;;33.98;43.76
62791;BME280;48830;53.426;10.300;2022-08-03T11:30:06;101431.44;;;34.10;43.54
62791;BME280;48830;53.426;10.300;2022-08-03T11:45:56;101425.53;;;33.94;43.19
62791;BME280;48830;53.426;10.300;2022-08-03T11:48:26;101425.59;;;34.05;42.53
62791;BME280;48830;53.426;10.300;2022-08-03T11:50:51;101419.81;;;33.75;43.13
62791;BME280;48830;53.426;10.300;2022-08-03T11:53:17;101418.59;;;33.42;42.77
62791;BME280;48830;53.426;10.300;2022-08-03T11:55:45;101420.16;;;34.07;43.15
62791;BME280;48830;53.426;10.300;2022-08-03T11:58:20;101427.22;;;33.95;42.77
62791;BME280;48830;53.426;10.300;2022-08-03T12:00:47;101421.88;;;33.58;43.36
62791;BME280;48830;53.426;10.300;2022-08-03T12:03:14;101421.69;;;33.49;42.99
62791;BME280;48830;53.426;10.300;2022-08-03T12:05:45;101411.94;;;33.60;43.32
62791;BME280;48830;53.426;10.300;2022-08-03T12:08:13;101414.81;;;34.31;42.00
62791;BME280;48830;53.426;10.300;2022-08-03T12:10:43;101406.97;;;34.76;42.31
62791;BME280;48830;53.426;10.300;2022-08-03T12:13:10;101414.47;;;35.17;42.45
62791;BME280;48830;53.426;10.300;2022-08-03T12:15:36;101418.75;;;34.73;41.68
62791;BME280;48830;53.426;10.300;2022-08-03T12:18:11;101412.25;;;34.53;40.85
62791;BME280;48830;53.426;10.300;2022-08-03T12:20:37;101407.91;;;34.28;41.87
62791;BME280;48830;53.426;10.300;2022-08-03T12:23:04;101404.41;;;34.74;42.64
62791;BME280;48830;53.426;10.300;2022-08-03T12:25:30;101404.78;;;34.81;41.31
62791;BME280;48830;53.426;10.300;2022-08-03T12:28:06;101395.41;;;34.64;41.30
62791;BME280;48830;53.426;10.300;2022-08-03T12:30:33;101405.00;;;34.07;41.85
62791;BME280;48830;53.426;10.300;2022-08-03T12:33:22;101403.53;;;34.62;42.35
62791;BME280;48830;53.426;10.300;2022-08-03T12:38:29;101401.38;;;35.25;42.24
62791;BME280;48830;53.426;10.300;2022-08-03T12:41:04;101393.16;;;34.93;41.52
62791;BME280;48830;53.426;10.300;2022-08-03T12:43:31;101395.09;;;34.91;42.08
62791;BME280;48830;53.426;10.300;2022-08-03T12:46:30;101393.94;;;35.06;41.74
62791;BME280;48830;53.426;10.300;2022-08-03T12:49:10;101393.34;;;35.47;40.63
62791;BME280;48830;53.426;10.300;2022-08-03T12:54:15;101391.78;;;35.99;40.57
62791;BME280;48830;53.426;10.300;2022-08-03T12:57:00;101387.22;;;35.79;39.60
62791;BME280;48830;53.426;10.300;2022-08-03T12:59:31;101396.06;;;35.91;39.11
62791;BME280;48830;53.426;10.300;2022-08-03T13:01:57;101395.06;;;36.03;40.59
62791;BME280;48830;53.426;10.300;2022-08-03T13:04:31;101399.97;;;35.98;39.66
62791;BME280;48830;53.426;10.300;2022-08-03T13:07:05;101396.88;;;35.14;39.79
62791;BME280;48830;53.426;10.300;2022-08-03T13:09:45;101393.56;;;35.22;39.11
62791;BME280;48830;53.426;10.300;2022-08-03T13:12:18;101389.81;;;34.56;40.33
62791;BME280;48830;53.426;10.300;2022-08-03T13:14:46;101388.84;;;35.48;40.55
62791;BME280;48830;53.426;10.300;2022-08-03T13:17:12;101393.22;;;35.60;40.11
62791;BME280;48830;53.426;10.300;2022-08-03T13:19:38;101388.81;;;35.70;40.17
62791;BME280;48830;53.426;10.300;2022-08-03T13:24:44;101384.88;;;35.97;39.94
62791;BME280;48830;53.426;10.300;2022-08-03T13:27:11;101380.00;;;35.91;38.80
62791;BME280;48830;53.426;10.300;2022-08-03T13:29:36;101386.34;;;36.01;39.85
62791;BME280;48830;53.426;10.300;2022-08-03T13:32:03;101380.38;;;36.30;38.59
62791;BME280;48830;53.426;10.300;2022-08-03T13:34:29;101379.13;;;36.45;38.40
62791;BME280;48830;53.426;10.300;2022-08-03T13:36:55;101379.22;;;36.64;38.78
62791;BME280;48830;53.426;10.300;2022-08-03T13:39:20;101387.94;;;36.57;38.79
62791;BME280;48830;53.426;10.300;2022-08-03T13:41:46;101374.78;;;36.33;38.46
62791;BME280;48830;53.426;10.300;2022-08-03T13:44:12;101377.59;;;36.20;39.08